sensor_id;sensor_type;location;lat;lon;timestamp;temperature;humidity
20866;DHT22;10593;48.398;10.698;2023-11-19T00:00:22;9.50;65.20
20866;DHT22;10593;48.398;10.698;2023-11-19T00:02:48;9.50;65.40
20866;DHT22;10593;48.398;10.698;2023-11-19T00:05:14;9.50;65.40
20866;DHT22;10593;48.398;10.698;2023-11-19T00:07:40;9.50;65.60
20866;DHT22;10593;48.398;10.698;2023-11-19T00:10:10;9.50;65.70
20866;DHT22;10593;48.398;10.698;2023-11-19T00:12:39;9.50;65.70
20866;DHT22;10593;48.398;10.698;2023-11-19T00:15:07;9.50;65.70
20866;DHT22;10593;48.398;10.698;2023-11-19T00:17:40;9.50;65.70
20866;DHT22;10593;48.398;10.698;2023-11-19T00:20:14;9.60;65.80
20866;DHT22;10593;48.398;10.698;2023-11-19T00:22:41;9.60;65.80
20866;DHT22;10593;48.398;10.698;2023-11-19T00:25:08;9.50;65.70
20866;DHT22;10593;48.398;10.698;2023-11-19T00:27:38;9.60;66.00
20866;DHT22;10593;48.398;10.698;2023-11-19T00:30:07;9.60;66.20
20866;DHT22;10593;48.398;10.698;2023-11-19T00:32:36;9.60;66.30
20866;DHT22;10593;48.398;10.698;2023-11-19T00:35:04;9.60;66.30
20866;DHT22;10593;48.398;10.698;2023-11-19T00:37:31;9.60;66.40
20866;DHT22;10593;48.398;10.698;2023-11-19T00:39:57;9.60;66.50
20866;DHT22;10593;48.398;10.698;2023-11-19T00:42:23;9.60;66.50
20866;DHT22;10593;48.398;10.698;2023-11-19T00:44:52;9.60;66.60
20866;DHT22;10593;48.398;10.698;2023-11-19T00:47:18;9.60;66.60
20866;DHT22;10593;48.398;10.698;2023-11-19T00:49:46;9.60;66.70
20866;DHT22;10593;48.398;10.698;2023-11-19T00:52:16;9.60;66.70
20866;DHT22;10593;48.398;10.698;2023-11-19T00:54:43;9.60;67.00
20866;DHT22;10593;48.398;10.698;2023-11-19T00:57:08;9.60;67.00
20866;DHT22;10593;48.398;10.698;2023-11-19T00:59:35;9.70;67.20
20866;DHT22;10593;48.398;10.698;2023-11-19T01:02:00;9.60;67.10
20866;DHT22;10593;48.398;10.698;2023-11-19T01:04:33;9.60;67.10
20866;DHT22;10593;48.398;10.698;2023-11-19T01:07:03;9.70;67.20
20866;DHT22;10593;48.398;10.698;2023-11-19T01:09:32;9.70;67.20
20866;DHT22;10593;48.398;10.698;2023-11-19T01:12:02;9.60;67.10
20866;DHT22;10593;48.398;10.698;2023-11-19T01:14:28;9.70;67.20
20866;DHT22;10593;48.398;10.698;2023-11-19T01:16:55;9.70;67.30
20866;DHT22;10593;48.398;10.698;2023-11-19T01:19:23;9.70;67.40
20866;DHT22;10593;48.398;10.698;2023-11-19T01:21:50;9.70;67.50
20866;DHT22;10593;48.398;10.698;2023-11-19T01:24:16;9.70;67.50
20866;DHT22;10593;48.398;10.698;2023-11-19T01:26:43;9.70;67.60
20866;DHT22;10593;48.398;10.698;2023-11-19T01:29:16;9.70;67.80
20866;DHT22;10593;48.398;10.698;2023-11-19T01:31:42;9.70;67.90
20866;DHT22;10593;48.398;10.698;2023-11-19T01:34:08;9.70;67.90
20866;DHT22;10593;48.398;10.698;2023-11-19T01:36:35;9.70;67.90
20866;DHT22;10593;48.398;10.698;2023-11-19T01:39:01;9.70;67.90
20866;DHT22;10593;48.398;10.698;2023-11-19T01:41:27;9.80;68.10
20866;DHT22;10593;48.398;10.698;2023-11-19T01:43:53;9.80;68.20
20866;DHT22;10593;48.398;10.698;2023-11-19T01:46:19;9.70;68.20
20866;DHT22;10593;48.398;10.698;2023-11-19T01:48:46;9.80;68.30
20866;DHT22;10593;48.398;10.698;2023-11-19T01:51:15;9.80;68.80
20866;DHT22;10593;48.398;10.698;2023-11-19T01:53:43;9.80;68.60
20866;DHT22;10593;48.398;10.698;2023-11-19T01:56:10;9.80;68.50
20866;DHT22;10593;48.398;10.698;2023-11-19T01:58:39;9.80;68.60
20866;DHT22;10593;48.398;10.698;2023-11-19T02:01:06;9.80;68.60
20866;DHT22;10593;48.398;10.698;2023-11-19T02:03:33;9.80;68.70
20866;DHT22;10593;48.398;10.698;2023-11-19T02:06:00;9.80;68.70
20866;DHT22;10593;48.398;10.698;2023-11-19T02:08:26;9.80;68.80
20866;DHT22;10593;48.398;10.698;2023-11-19T02:10:52;9.90;68.90
20866;DHT22;10593;48.398;10.698;2023-11-19T02:13:22;9.90;69.00
20866;DHT22;10593;48.398;10.698;2023-11-19T02:15:48;9.90;69.00
20866;DHT22;10593;48.398;10.698;2023-11-19T02:18:35;9.90;69.10
20866;DHT22;10593;48.398;10.698;2023-11-19T02:21:01;9.90;69.20
20866;DHT22;10593;48.398;10.698;2023-11-19T02:23:27;9.90;69.10
20866;DHT22;10593;48.398;10.698;2023-11-19T02:26:09;9.90;69.30
20866;DHT22;10593;48.398;10.698;2023-11-19T02:28:56;9.90;69.70
20866;DHT22;10593;48.398;10.698;2023-11-19T02:31:22;9.90;69.30
20866;DHT22;10593;48.398;10.698;2023-11-19T02:33:48;9.90;69.30
20866;DHT22;10593;48.398;10.698;2023-11-19T02:36:15;9.90;69.40
20866;DHT22;10593;48.398;10.698;2023-11-19T02:38:42;10.00;68.60
20866;DHT22;10593;48.398;10.698;2023-11-19T02:41:09;9.90;69.70
20866;DHT22;10593;48.398;10.698;2023-11-19T02:43:36;9.90;69.90
20866;DHT22;10593;48.398;10.698;2023-11-19T02:46:03;10.00;68.90
20866;DHT22;10593;48.398;10.698;2023-11-19T02:48:34;10.00;69.00
20866;DHT22;10593;48.398;10.698;2023-11-19T02:51:01;10.00;69.00
20866;DHT22;10593;48.398;10.698;2023-11-19T02:53:29;10.00;68.90
20866;DHT22;10593;48.398;10.698;2023-11-19T02:55:55;10.00;68.90
20866;DHT22;10593;48.398;10.698;2023-11-19T02:58:27;10.00;68.90
20866;DHT22;10593;48.398;10.698;2023-11-19T03:00:54;10.00;68.90
20866;DHT22;10593;48.398;10.698;2023-11-19T03:03:25;10.00;68.90
20866;DHT22;10593;48.398;10.698;2023-11-19T03:05:56;10.00;69.00
20866;DHT22;10593;48.398;10.698;2023-11-19T03:08:22;10.00;69.00
20866;DHT22;10593;48.398;10.698;2023-11-19T03:10:48;10.00;69.00
20866;DHT22;10593;48.398;10.698;2023-11-19T03:13:15;10.00;69.10
20866;DHT22;10593;48.398;10.698;2023-11-19T03:15:42;10.10;69.30
20866;DHT22;10593;48.398;10.698;2023-11-19T03:18:08;10.10;69.40
20866;DHT22;10593;48.398;10.698;2023-11-19T03:20:33;10.10;69.40
20866;DHT22;10593;48.398;10.698;2023-11-19T03:22:59;10.10;69.50
20866;DHT22;10593;48.398;10.698;2023-11-19T03:25:27;10.10;69.50
20866;DHT22;10593;48.398;10.698;2023-11-19T03:27:59;10.10;69.60
20866;DHT22;10593;48.398;10.698;2023-11-19T03:30:26;10.10;69.70
20866;DHT22;10593;48.398;10.698;2023-11-19T03:32:52;10.10;69.80
20866;DHT22;10593;48.398;10.698;2023-11-19T03:35:17;10.10;69.80
20866;DHT22;10593;48.398;10.698;2023-11-19T03:37:43;10.10;69.80
20866;DHT22;10593;48.398;10.698;2023-11-19T03:40:09;10.10;69.80
20866;DHT22;10593;48.398;10.698;2023-11-19T03:42:36;10.10;69.90
20866;DHT22;10593;48.398;10.698;2023-11-19T03:45:02;10.20;70.00
20866;DHT22;10593;48.398;10.698;2023-11-19T03:47:29;10.10;69.90
20866;DHT22;10593;48.398;10.698;2023-11-19T03:49:55;10.20;70.00
20866;DHT22;10593;48.398;10.698;2023-11-19T03:52:20;10.20;70.00
20866;DHT22;10593;48.398;10.698;2023-11-19T03:54:46;10.20;70.10
20866;DHT22;10593;48.398;10.698;2023-11-19T03:57:13;10.20;70.20
20866;DHT22;10593;48.398;10.698;2023-11-19T03:59:41;10.20;70.20
20866;DHT22;10593;48.398;10.698;2023-11-19T04:02:06;10.20;70.20
20866;DHT22;10593;48.398;10.698;2023-11-19T04:04:33;10.20;70.20
20866;DHT22;10593;48.398;10.698;2023-11-19T04:07:00;10.20;70.40
20866;DHT22;10593;48.398;10.698;2023-11-19T04:09:26;10.20;70.40
20866;DHT22;10593;48.398;10.698;2023-11-19T04:11:54;10.20;70.50
20866;DHT22;10593;48.398;10.698;2023-11-19T04:14:20;10.20;70.60
20866;DHT22;10593;48.398;10.698;2023-11-19T04:16:46;10.30;70.70
20866;DHT22;10593;48.398;10.698;2023-11-19T04:19:12;10.20;70.60
20866;DHT22;10593;48.398;10.698;2023-11-19T04:21:40;10.20;70.60
20866;DHT22;10593;48.398;10.698;2023-11-19T04:24:08;10.30;70.90
20866;DHT22;10593;48.398;10.698;2023-11-19T04:26:34;10.30;70.80
20866;DHT22;10593;48.398;10.698;2023-11-19T04:29:00;10.30;70.90
20866;DHT22;10593;48.398;10.698;2023-11-19T04:31:31;10.30;71.00
20866;DHT22;10593;48.398;10.698;2023-11-19T04:33:57;10.30;71.20
20866;DHT22;10593;48.398;10.698;2023-11-19T04:36:24;10.30;71.00
20866;DHT22;10593;48.398;10.698;2023-11-19T04:38:50;10.30;71.10
20866;DHT22;10593;48.398;10.698;2023-11-19T04:41:16;10.30;71.10
20866;DHT22;10593;48.398;10.698;2023-11-19T04:43:41;10.30;71.20
20866;DHT22;10593;48.398;10.698;2023-11-19T04:46:09;10.30;71.20
20866;DHT22;10593;48.398;10.698;2023-11-19T04:48:35;10.30;71.30
20866;DHT22;10593;48.398;10.698;2023-11-19T04:51:00;10.30;71.40
20866;DHT22;10593;48.398;10.698;2023-11-19T04:53:26;10.30;71.40
20866;DHT22;10593;48.398;10.698;2023-11-19T04:55:52;10.40;71.50
20866;DHT22;10593;48.398;10.698;2023-11-19T04:58:17;10.40;71.60
20866;DHT22;10593;48.398;10.698;2023-11-19T05:00:44;10.40;71.70
20866;DHT22;10593;48.398;10.698;2023-11-19T05:03:10;10.40;71.60
20866;DHT22;10593;48.398;10.698;2023-11-19T05:05:36;10.40;71.70
20866;DHT22;10593;48.398;10.698;2023-11-19T05:08:02;10.40;71.90
20866;DHT22;10593;48.398;10.698;2023-11-19T05:10:28;10.40;71.80
20866;DHT22;10593;48.398;10.698;2023-11-19T05:12:53;10.40;71.80
20866;DHT22;10593;48.398;10.698;2023-11-19T05:15:21;10.40;71.80
20866;DHT22;10593;48.398;10.698;2023-11-19T05:17:47;10.40;71.80
20866;DHT22;10593;48.398;10.698;2023-11-19T05:20:13;10.40;71.90
20866;DHT22;10593;48.398;10.698;2023-11-19T05:22:40;10.50;72.10
20866;DHT22;10593;48.398;10.698;2023-11-19T05:25:07;10.50;72.20
20866;DHT22;10593;48.398;10.698;2023-11-19T05:27:34;10.50;72.20
20866;DHT22;10593;48.398;10.698;2023-11-19T05:30:01;10.50;72.30
20866;DHT22;10593;48.398;10.698;2023-11-19T05:32:28;10.50;72.30
20866;DHT22;10593;48.398;10.698;2023-11-19T05:34:53;10.50;72.20
20866;DHT22;10593;48.398;10.698;2023-11-19T05:37:19;10.50;72.30
20866;DHT22;10593;48.398;10.698;2023-11-19T05:39:45;10.50;72.40
20866;DHT22;10593;48.398;10.698;2023-11-19T05:42:11;10.50;72.40
20866;DHT22;10593;48.398;10.698;2023-11-19T05:44:36;10.50;72.40
20866;DHT22;10593;48.398;10.698;2023-11-19T05:47:03;10.50;72.40
20866;DHT22;10593;48.398;10.698;2023-11-19T05:49:29;10.60;72.50
20866;DHT22;10593;48.398;10.698;2023-11-19T05:51:55;10.60;72.60
20866;DHT22;10593;48.398;10.698;2023-11-19T05:54:21;10.60;72.60
20866;DHT22;10593;48.398;10.698;2023-11-19T05:56:50;10.60;72.60
20866;DHT22;10593;48.398;10.698;2023-11-19T05:59:16;10.60;72.80
20866;DHT22;10593;48.398;10.698;2023-11-19T06:01:43;10.60;72.70
20866;DHT22;10593;48.398;10.698;2023-11-19T06:04:09;10.60;73.40
20866;DHT22;10593;48.398;10.698;2023-11-19T06:06:36;10.60;72.70
20866;DHT22;10593;48.398;10.698;2023-11-19T06:09:02;10.60;72.70
20866;DHT22;10593;48.398;10.698;2023-11-19T06:11:29;10.60;72.80
20866;DHT22;10593;48.398;10.698;2023-11-19T06:13:54;10.60;72.80
20866;DHT22;10593;48.398;10.698;2023-11-19T06:16:20;10.70;72.90
20866;DHT22;10593;48.398;10.698;2023-11-19T06:18:46;10.60;72.80
20866;DHT22;10593;48.398;10.698;2023-11-19T06:21:12;10.70;72.80
20866;DHT22;10593;48.398;10.698;2023-11-19T06:23:37;10.70;72.90
20866;DHT22;10593;48.398;10.698;2023-11-19T06:26:03;10.70;72.90
20866;DHT22;10593;48.398;10.698;2023-11-19T06:28:30;10.70;72.90
20866;DHT22;10593;48.398;10.698;2023-11-19T06:30:57;10.70;72.90
20866;DHT22;10593;48.398;10.698;2023-11-19T06:33:24;10.70;72.90
20866;DHT22;10593;48.398;10.698;2023-11-19T06:35:50;10.70;72.90
20866;DHT22;10593;48.398;10.698;2023-11-19T06:38:15;10.70;72.90
20866;DHT22;10593;48.398;10.698;2023-11-19T06:40:41;10.70;72.90
20866;DHT22;10593;48.398;10.698;2023-11-19T06:43:07;10.70;73.00
20866;DHT22;10593;48.398;10.698;2023-11-19T06:45:34;10.80;73.20
20866;DHT22;10593;48.398;10.698;2023-11-19T06:48:03;10.80;73.20
20866;DHT22;10593;48.398;10.698;2023-11-19T06:50:30;10.80;73.30
20866;DHT22;10593;48.398;10.698;2023-11-19T06:52:57;10.80;73.20
20866;DHT22;10593;48.398;10.698;2023-11-19T06:55:22;10.80;73.10
20866;DHT22;10593;48.398;10.698;2023-11-19T06:57:48;10.80;73.20
20866;DHT22;10593;48.398;10.698;2023-11-19T07:00:14;10.80;73.20
20866;DHT22;10593;48.398;10.698;2023-11-19T07:02:40;10.80;73.30
20866;DHT22;10593;48.398;10.698;2023-11-19T07:05:06;10.80;73.30
20866;DHT22;10593;48.398;10.698;2023-11-19T07:07:33;10.80;73.40
20866;DHT22;10593;48.398;10.698;2023-11-19T07:10:00;10.80;73.40
20866;DHT22;10593;48.398;10.698;2023-11-19T07:12:27;10.90;73.60
20866;DHT22;10593;48.398;10.698;2023-11-19T07:14:53;10.90;73.60
20866;DHT22;10593;48.398;10.698;2023-11-19T07:17:20;10.90;73.60
20866;DHT22;10593;48.398;10.698;2023-11-19T07:19:47;10.90;73.60
20866;DHT22;10593;48.398;10.698;2023-11-19T07:22:15;10.90;73.60
20866;DHT22;10593;48.398;10.698;2023-11-19T07:24:41;10.90;73.60
20866;DHT22;10593;48.398;10.698;2023-11-19T07:27:07;10.90;73.60
20866;DHT22;10593;48.398;10.698;2023-11-19T07:29:34;10.90;73.70
20866;DHT22;10593;48.398;10.698;2023-11-19T07:32:01;10.90;73.80
20866;DHT22;10593;48.398;10.698;2023-11-19T07:34:30;11.00;74.00
20866;DHT22;10593;48.398;10.698;2023-11-19T07:36:56;11.00;74.00
20866;DHT22;10593;48.398;10.698;2023-11-19T07:39:25;11.00;74.10
20866;DHT22;10593;48.398;10.698;2023-11-19T07:41:50;11.00;74.10
20866;DHT22;10593;48.398;10.698;2023-11-19T07:44:16;11.00;74.20
20866;DHT22;10593;48.398;10.698;2023-11-19T07:46:42;11.00;74.30
20866;DHT22;10593;48.398;10.698;2023-11-19T07:49:10;11.00;74.30
20866;DHT22;10593;48.398;10.698;2023-11-19T07:51:36;11.00;74.40
20866;DHT22;10593;48.398;10.698;2023-11-19T07:54:02;11.10;74.60
20866;DHT22;10593;48.398;10.698;2023-11-19T07:56:29;11.00;74.50
20866;DHT22;10593;48.398;10.698;2023-11-19T07:58:55;11.10;74.80
20866;DHT22;10593;48.398;10.698;2023-11-19T08:01:21;11.10;74.90
20866;DHT22;10593;48.398;10.698;2023-11-19T08:03:49;11.10;75.00
20866;DHT22;10593;48.398;10.698;2023-11-19T08:06:14;11.20;75.20
20866;DHT22;10593;48.398;10.698;2023-11-19T08:08:40;11.20;75.20
20866;DHT22;10593;48.398;10.698;2023-11-19T08:11:06;11.20;75.20
20866;DHT22;10593;48.398;10.698;2023-11-19T08:13:32;11.20;75.30
20866;DHT22;10593;48.398;10.698;2023-11-19T08:15:58;11.20;75.40
20866;DHT22;10593;48.398;10.698;2023-11-19T08:18:24;11.20;75.50
20866;DHT22;10593;48.398;10.698;2023-11-19T08:20:50;11.30;75.60
20866;DHT22;10593;48.398;10.698;2023-11-19T08:23:19;11.30;75.60
20866;DHT22;10593;48.398;10.698;2023-11-19T08:25:46;11.30;75.80
20866;DHT22;10593;48.398;10.698;2023-11-19T08:28:11;11.30;75.70
20866;DHT22;10593;48.398;10.698;2023-11-19T08:30:37;11.30;75.80
20866;DHT22;10593;48.398;10.698;2023-11-19T08:33:03;11.40;76.00
20866;DHT22;10593;48.398;10.698;2023-11-19T08:35:31;11.40;76.00
20866;DHT22;10593;48.398;10.698;2023-11-19T08:37:57;11.40;76.10
20866;DHT22;10593;48.398;10.698;2023-11-19T08:40:23;11.40;76.10
20866;DHT22;10593;48.398;10.698;2023-11-19T08:42:48;11.50;76.30
20866;DHT22;10593;48.398;10.698;2023-11-19T08:45:14;11.50;76.40
20866;DHT22;10593;48.398;10.698;2023-11-19T08:47:39;11.50;76.40
20866;DHT22;10593;48.398;10.698;2023-11-19T08:50:06;11.50;76.40
20866;DHT22;10593;48.398;10.698;2023-11-19T08:52:32;11.50;76.50
20866;DHT22;10593;48.398;10.698;2023-11-19T08:54:57;11.60;76.60
20866;DHT22;10593;48.398;10.698;2023-11-19T08:57:23;11.60;76.50
20866;DHT22;10593;48.398;10.698;2023-11-19T08:59:49;11.60;76.60
20866;DHT22;10593;48.398;10.698;2023-11-19T09:02:15;11.60;76.60
20866;DHT22;10593;48.398;10.698;2023-11-19T09:04:40;11.60;76.60
20866;DHT22;10593;48.398;10.698;2023-11-19T09:07:06;11.70;76.80
20866;DHT22;10593;48.398;10.698;2023-11-19T09:09:34;11.70;76.80
20866;DHT22;10593;48.398;10.698;2023-11-19T09:12:02;11.70;76.90
20866;DHT22;10593;48.398;10.698;2023-11-19T09:14:31;11.70;76.90
20866;DHT22;10593;48.398;10.698;2023-11-19T09:16:57;11.80;77.10
20866;DHT22;10593;48.398;10.698;2023-11-19T09:19:23;11.80;77.20
20866;DHT22;10593;48.398;10.698;2023-11-19T09:21:50;11.80;77.30
20866;DHT22;10593;48.398;10.698;2023-11-19T09:24:16;11.80;77.40
20866;DHT22;10593;48.398;10.698;2023-11-19T09:26:41;11.90;77.60
20866;DHT22;10593;48.398;10.698;2023-11-19T09:29:08;11.90;77.60
20866;DHT22;10593;48.398;10.698;2023-11-19T09:31:33;11.90;77.70
20866;DHT22;10593;48.398;10.698;2023-11-19T09:34:00;12.00;77.80
20866;DHT22;10593;48.398;10.698;2023-11-19T09:36:26;12.00;77.90
20866;DHT22;10593;48.398;10.698;2023-11-19T09:38:52;12.00;78.00
20866;DHT22;10593;48.398;10.698;2023-11-19T09:41:18;12.00;78.10
20866;DHT22;10593;48.398;10.698;2023-11-19T09:43:45;12.00;78.30
20866;DHT22;10593;48.398;10.698;2023-11-19T09:46:11;12.10;78.60
20866;DHT22;10593;48.398;10.698;2023-11-19T09:48:39;12.10;78.60
20866;DHT22;10593;48.398;10.698;2023-11-19T09:51:10;12.10;78.60
20866;DHT22;10593;48.398;10.698;2023-11-19T09:53:37;12.20;79.10
20866;DHT22;10593;48.398;10.698;2023-11-19T09:56:04;12.20;79.10
20866;DHT22;10593;48.398;10.698;2023-11-19T09:58:31;12.20;79.20
20866;DHT22;10593;48.398;10.698;2023-11-19T10:00:58;12.20;79.30
20866;DHT22;10593;48.398;10.698;2023-11-19T10:03:36;12.30;79.50
20866;DHT22;10593;48.398;10.698;2023-11-19T10:06:09;12.30;79.50
20866;DHT22;10593;48.398;10.698;2023-11-19T10:08:39;12.40;79.70
20866;DHT22;10593;48.398;10.698;2023-11-19T10:11:06;12.40;79.70
20866;DHT22;10593;48.398;10.698;2023-11-19T10:13:35;12.40;79.50
20866;DHT22;10593;48.398;10.698;2023-11-19T10:16:27;12.50;79.80
20866;DHT22;10593;48.398;10.698;2023-11-19T10:18:55;12.50;79.70
20866;DHT22;10593;48.398;10.698;2023-11-19T10:21:21;12.50;79.70
20866;DHT22;10593;48.398;10.698;2023-11-19T10:23:48;12.60;79.70
20866;DHT22;10593;48.398;10.698;2023-11-19T10:26:15;12.60;79.70
20866;DHT22;10593;48.398;10.698;2023-11-19T10:28:41;12.60;79.70
20866;DHT22;10593;48.398;10.698;2023-11-19T10:31:09;12.60;79.70
20866;DHT22;10593;48.398;10.698;2023-11-19T10:33:35;12.70;79.70
20866;DHT22;10593;48.398;10.698;2023-11-19T10:36:01;12.70;79.70
20866;DHT22;10593;48.398;10.698;2023-11-19T10:38:26;12.70;79.60
20866;DHT22;10593;48.398;10.698;2023-11-19T10:40:52;12.80;79.70
20866;DHT22;10593;48.398;10.698;2023-11-19T10:43:20;12.80;79.60
20866;DHT22;10593;48.398;10.698;2023-11-19T10:45:48;12.80;79.40
20866;DHT22;10593;48.398;10.698;2023-11-19T10:48:14;12.90;79.40
20866;DHT22;10593;48.398;10.698;2023-11-19T10:50:42;12.90;79.40
20866;DHT22;10593;48.398;10.698;2023-11-19T10:53:10;12.90;79.40
20866;DHT22;10593;48.398;10.698;2023-11-19T10:55:41;12.90;79.40
20866;DHT22;10593;48.398;10.698;2023-11-19T10:58:09;13.00;79.50
20866;DHT22;10593;48.398;10.698;2023-11-19T11:00:44;13.00;79.50
20866;DHT22;10593;48.398;10.698;2023-11-19T11:03:20;13.00;79.70
20866;DHT22;10593;48.398;10.698;2023-11-19T11:05:51;13.10;79.70
20866;DHT22;10593;48.398;10.698;2023-11-19T11:08:19;13.10;79.60
20866;DHT22;10593;48.398;10.698;2023-11-19T11:10:49;13.00;79.50
20866;DHT22;10593;48.398;10.698;2023-11-19T11:13:18;13.10;79.60
20866;DHT22;10593;48.398;10.698;2023-11-19T11:15:45;13.10;80.20
20866;DHT22;10593;48.398;10.698;2023-11-19T11:18:12;13.20;79.70
20866;DHT22;10593;48.398;10.698;2023-11-19T11:20:39;13.20;79.70
20866;DHT22;10593;48.398;10.698;2023-11-19T11:23:19;13.20;79.70
20866;DHT22;10593;48.398;10.698;2023-11-19T11:29:54;13.30;79.50
20866;DHT22;10593;48.398;10.698;2023-11-19T11:32:44;13.40;79.70
20866;DHT22;10593;48.398;10.698;2023-11-19T11:35:40;13.40;79.50
20866;DHT22;10593;48.398;10.698;2023-11-19T11:38:27;13.40;79.80
20866;DHT22;10593;48.398;10.698;2023-11-19T11:41:19;13.50;79.50
20866;DHT22;10593;48.398;10.698;2023-11-19T11:43:53;13.50;79.70
20866;DHT22;10593;48.398;10.698;2023-11-19T11:49:25;13.60;80.10
20866;DHT22;10593;48.398;10.698;2023-11-19T11:51:58;13.60;80.10
20866;DHT22;10593;48.398;10.698;2023-11-19T11:57:13;13.70;80.20
20866;DHT22;10593;48.398;10.698;2023-11-19T12:02:13;13.80;79.90
20866;DHT22;10593;48.398;10.698;2023-11-19T12:04:46;13.90;79.80
20866;DHT22;10593;48.398;10.698;2023-11-19T12:07:16;13.90;80.00
20866;DHT22;10593;48.398;10.698;2023-11-19T12:09:56;13.90;79.80
20866;DHT22;10593;48.398;10.698;2023-11-19T12:12:39;14.00;79.70
20866;DHT22;10593;48.398;10.698;2023-11-19T12:15:08;14.00;79.60
20866;DHT22;10593;48.398;10.698;2023-11-19T12:17:47;14.00;80.30
20866;DHT22;10593;48.398;10.698;2023-11-19T12:20:15;14.10;79.80
20866;DHT22;10593;48.398;10.698;2023-11-19T12:22:43;14.10;79.60
20866;DHT22;10593;48.398;10.698;2023-11-19T12:25:11;14.10;79.40
20866;DHT22;10593;48.398;10.698;2023-11-19T12:27:43;14.20;79.20
20866;DHT22;10593;48.398;10.698;2023-11-19T12:30:11;14.20;79.00
20866;DHT22;10593;48.398;10.698;2023-11-19T12:32:46;14.20;78.80
20866;DHT22;10593;48.398;10.698;2023-11-19T12:35:12;14.20;78.20
20866;DHT22;10593;48.398;10.698;2023-11-19T12:40:21;14.30;77.70
20866;DHT22;10593;48.398;10.698;2023-11-19T12:42:49;14.30;77.40
20866;DHT22;10593;48.398;10.698;2023-11-19T12:45:16;14.40;77.40
20866;DHT22;10593;48.398;10.698;2023-11-19T12:47:45;14.40;77.20
20866;DHT22;10593;48.398;10.698;2023-11-19T12:50:15;14.40;77.10
20866;DHT22;10593;48.398;10.698;2023-11-19T12:52:55;14.40;76.90
20866;DHT22;10593;48.398;10.698;2023-11-19T12:55:27;14.40;76.60
20866;DHT22;10593;48.398;10.698;2023-11-19T12:57:54;14.40;76.60
20866;DHT22;10593;48.398;10.698;2023-11-19T13:00:25;14.40;76.60
20866;DHT22;10593;48.398;10.698;2023-11-19T13:02:54;14.40;76.30
20866;DHT22;10593;48.398;10.698;2023-11-19T13:08:01;14.40;76.40
20866;DHT22;10593;48.398;10.698;2023-11-19T13:10:30;14.40;76.60
20866;DHT22;10593;48.398;10.698;2023-11-19T13:13:07;14.40;76.50
20866;DHT22;10593;48.398;10.698;2023-11-19T13:15:34;14.40;76.30
20866;DHT22;10593;48.398;10.698;2023-11-19T13:18:01;14.40;76.20
20866;DHT22;10593;48.398;10.698;2023-11-19T13:20:28;14.50;76.20
20866;DHT22;10593;48.398;10.698;2023-11-19T13:23:02;14.50;76.00
20866;DHT22;10593;48.398;10.698;2023-11-19T13:25:29;14.50;76.70
20866;DHT22;10593;48.398;10.698;2023-11-19T13:27:56;14.50;75.80
20866;DHT22;10593;48.398;10.698;2023-11-19T13:30:23;14.50;75.60
20866;DHT22;10593;48.398;10.698;2023-11-19T13:32:50;14.50;75.40
20866;DHT22;10593;48.398;10.698;2023-11-19T13:35:17;14.50;75.20
20866;DHT22;10593;48.398;10.698;2023-11-19T13:37:44;14.50;75.00
20866;DHT22;10593;48.398;10.698;2023-11-19T13:40:11;14.60;75.00
20866;DHT22;10593;48.398;10.698;2023-11-19T13:42:43;14.60;75.00
20866;DHT22;10593;48.398;10.698;2023-11-19T13:45:13;14.50;74.80
20866;DHT22;10593;48.398;10.698;2023-11-19T13:47:44;14.60;74.90
20866;DHT22;10593;48.398;10.698;2023-11-19T13:50:13;14.60;74.70
20866;DHT22;10593;48.398;10.698;2023-11-19T13:52:43;14.60;74.60
20866;DHT22;10593;48.398;10.698;2023-11-19T13:55:11;14.50;74.40
20866;DHT22;10593;48.398;10.698;2023-11-19T13:57:41;14.60;74.50
20866;DHT22;10593;48.398;10.698;2023-11-19T14:00:09;14.60;74.50
20866;DHT22;10593;48.398;10.698;2023-11-19T14:02:39;14.60;74.50
20866;DHT22;10593;48.398;10.698;2023-11-19T14:05:06;14.60;74.50
20866;DHT22;10593;48.398;10.698;2023-11-19T14:07:33;14.60;74.50
20866;DHT22;10593;48.398;10.698;2023-11-19T14:09:59;14.60;74.40
20866;DHT22;10593;48.398;10.698;2023-11-19T14:12:24;14.60;74.30
20866;DHT22;10593;48.398;10.698;2023-11-19T14:14:50;14.60;74.30
20866;DHT22;10593;48.398;10.698;2023-11-19T14:17:16;14.70;74.30
20866;DHT22;10593;48.398;10.698;2023-11-19T14:19:42;14.70;74.30
20866;DHT22;10593;48.398;10.698;2023-11-19T14:22:08;14.60;73.90
20866;DHT22;10593;48.398;10.698;2023-11-19T14:24:34;14.60;73.80
20866;DHT22;10593;48.398;10.698;2023-11-19T14:27:00;14.70;73.70
20866;DHT22;10593;48.398;10.698;2023-11-19T14:29:27;14.70;73.70
20866;DHT22;10593;48.398;10.698;2023-11-19T14:31:55;14.70;73.70
20866;DHT22;10593;48.398;10.698;2023-11-19T14:34:21;14.70;73.70
20866;DHT22;10593;48.398;10.698;2023-11-19T14:36:46;14.70;73.40
20866;DHT22;10593;48.398;10.698;2023-11-19T14:39:13;14.70;73.20
20866;DHT22;10593;48.398;10.698;2023-11-19T14:41:38;14.70;73.10
20866;DHT22;10593;48.398;10.698;2023-11-19T14:44:04;14.70;73.00
20866;DHT22;10593;48.398;10.698;2023-11-19T14:46:31;14.80;73.00
20866;DHT22;10593;48.398;10.698;2023-11-19T14:48:56;14.70;72.80
20866;DHT22;10593;48.398;10.698;2023-11-19T14:51:22;14.70;72.70
20866;DHT22;10593;48.398;10.698;2023-11-19T14:53:48;14.80;72.70
20866;DHT22;10593;48.398;10.698;2023-11-19T14:56:14;14.80;73.20
20866;DHT22;10593;48.398;10.698;2023-11-19T14:58:40;14.70;72.30
20866;DHT22;10593;48.398;10.698;2023-11-19T15:01:06;14.70;72.20
20866;DHT22;10593;48.398;10.698;2023-11-19T15:03:33;14.80;72.20
20866;DHT22;10593;48.398;10.698;2023-11-19T15:05:59;14.80;72.20
20866;DHT22;10593;48.398;10.698;2023-11-19T15:08:25;14.70;71.90
20866;DHT22;10593;48.398;10.698;2023-11-19T15:10:50;14.70;71.70
20866;DHT22;10593;48.398;10.698;2023-11-19T15:13:16;14.80;71.80
20866;DHT22;10593;48.398;10.698;2023-11-19T15:15:42;14.70;71.40
20866;DHT22;10593;48.398;10.698;2023-11-19T15:18:07;14.70;71.20
20866;DHT22;10593;48.398;10.698;2023-11-19T15:20:35;14.80;71.30
20866;DHT22;10593;48.398;10.698;2023-11-19T15:23:01;14.80;71.30
20866;DHT22;10593;48.398;10.698;2023-11-19T15:25:27;14.80;71.30
20866;DHT22;10593;48.398;10.698;2023-11-19T15:27:53;14.80;71.00
20866;DHT22;10593;48.398;10.698;2023-11-19T15:30:19;14.70;70.90
20866;DHT22;10593;48.398;10.698;2023-11-19T15:32:44;14.70;70.70
20866;DHT22;10593;48.398;10.698;2023-11-19T15:35:10;14.70;71.40
20866;DHT22;10593;48.398;10.698;2023-11-19T15:37:36;14.70;70.70